Time;durP1;ratioP1;P1;durP2;ratioP2;P2;SDS_P1;SDS_P2;PMS_P1;PMS_P2;Temp;Humidity;BMP_temperature;BMP_pressure;BME280_temperature;BME280_humidity;BME280_pressure;Samples;Min_cycle;Max_cycle;Signal;HPM_P1;HPM_P2
2022/09/17 00:01:45;;;;;;;;;;;7.90;85.30;;;;;;4975468;28;20374;-86
2022/09/17 00:04:11;;;;;;;;;;;7.90;85.40;;;;;;4992747;28;20402;-87
2022/09/17 00:06:36;;;;;;;;;;;7.90;86.30;;;;;;4975443;28;20379;-87
2022/09/17 00:09:04;;;;;;;;;;;7.90;85.80;;;;;;4992630;28;19972;-87
2022/09/17 00:11:31;;;;;;;;;;;7.90;86.10;;;;;;4975449;28;19910;-86
2022/09/17 00:13:58;;;;;;;;;;;7.90;86.30;;;;;;4975222;28;19909;-85
2022/09/17 00:16:28;;;;;;;;;;;7.90;86.50;;;;;;4978272;28;20429;-86
2022/09/17 00:18:54;;;;;;;;;;;7.90;86.60;;;;;;4996446;28;19905;-86
2022/09/17 00:21:20;;;;;;;;;;;7.90;86.90;;;;;;4996277;28;19993;-86
2022/09/17 00:23:46;;;;;;;;;;;7.80;87.10;;;;;;4993514;28;20360;-85
2022/09/17 00:26:11;;;;;;;;;;;7.80;87.30;;;;;;4996311;28;19916;-86
2022/09/17 00:28:37;;;;;;;;;;;7.80;87.50;;;;;;4995954;28;20359;-86
2022/09/17 00:31:06;;;;;;;;;;;7.80;87.80;;;;;;4995885;28;20355;-85
2022/09/17 00:33:32;;;;;;;;;;;7.80;88.10;;;;;;4978937;28;19913;-87
2022/09/17 00:35:58;;;;;;;;;;;7.80;88.30;;;;;;4978826;28;19916;-85
2022/09/17 00:38:24;;;;;;;;;;;7.70;88.40;;;;;;4978582;28;20259;-86
2022/09/17 00:40:50;;;;;;;;;;;7.60;88.70;;;;;;4996020;28;19917;-86
2022/09/17 00:43:32;;;;;;;;;;;7.60;89.20;;;;;;4995902;28;19960;-85
2022/09/17 00:45:57;;;;;;;;;;;7.60;89.50;;;;;;4995854;28;19917;-86
2022/09/17 00:48:23;;;;;;;;;;;7.50;89.80;;;;;;4978366;28;19914;-86
2022/09/17 00:50:49;;;;;;;;;;;7.50;90.00;;;;;;4995895;28;19965;-86
2022/09/17 00:53:16;;;;;;;;;;;7.50;90.10;;;;;;4978413;28;19905;-86
2022/09/17 00:55:42;;;;;;;;;;;7.50;90.20;;;;;;4995417;28;20401;-86
2022/09/17 00:58:09;;;;;;;;;;;7.50;90.30;;;;;;4995487;28;19912;-86
2022/09/17 01:00:35;;;;;;;;;;;7.50;90.40;;;;;;4995718;28;20020;-86
2022/09/17 01:03:01;;;;;;;;;;;7.50;90.50;;;;;;4978091;28;19949;-86
2022/09/17 01:05:32;;;;;;;;;;;7.50;90.70;;;;;;4978125;28;20333;-86
2022/09/17 01:08:07;;;;;;;;;;;7.40;90.70;;;;;;4977925;28;19996;-86
2022/09/17 01:10:44;;;;;;;;;;;7.40;90.90;;;;;;4977890;28;19917;-87
2022/09/17 01:13:25;;;;;;;;;;;7.40;90.90;;;;;;4993288;28;19933;-87
2022/09/17 01:15:50;;;;;;;;;;;7.20;90.90;;;;;;4993459;28;19906;-86
2022/09/17 01:18:22;;;;;;;;;;;7.10;91.30;;;;;;4978407;28;20416;-86
2022/09/17 01:20:53;;;;;;;;;;;7.00;91.40;;;;;;4992961;28;20390;-86
2022/09/17 01:23:44;;;;;;;;;;;6.90;91.70;;;;;;4977638;28;19906;-87
2022/09/17 01:26:22;;;;;;;;;;;6.90;91.90;;;;;;4991487;28;20016;-86
2022/09/17 01:28:47;;;;;;;;;;;6.90;92.10;;;;;;4991488;28;19910;-87
2022/09/17 01:31:19;;;;;;;;;;;6.90;92.20;;;;;;4995110;28;19914;-88
2022/09/17 01:33:48;;;;;;;;;;;6.90;92.20;;;;;;4995295;28;19910;-87
2022/09/17 01:36:46;;;;;;;;;;;6.90;92.30;;;;;;4977980;28;20310;-87
2022/09/17 01:39:14;;;;;;;;;;;6.90;92.40;;;;;;4970295;28;19906;-86
2022/09/17 01:41:51;;;;;;;;;;;6.90;92.50;;;;;;4979932;28;19913;-85
2022/09/17 01:44:26;;;;;;;;;;;6.90;92.60;;;;;;4975792;28;20674;-85
2022/09/17 01:46:54;;;;;;;;;;;6.90;92.70;;;;;;4993037;28;19905;-84
2022/09/17 01:49:24;;;;;;;;;;;6.90;92.70;;;;;;4977112;28;20020;-86
2022/09/17 01:51:50;;;;;;;;;;;6.80;92.70;;;;;;4992301;28;19913;-87
2022/09/17 01:54:37;;;;;;;;;;;6.60;92.80;;;;;;4976819;28;19906;-85
2022/09/17 01:57:15;;;;;;;;;;;6.50;93.10;;;;;;4992660;28;19997;-86
2022/09/17 01:59:44;;;;;;;;;;;6.40;93.40;;;;;;4977173;28;19939;-85
2022/09/17 02:02:26;;;;;;;;;;;6.40;93.50;;;;;;4980583;28;19957;-85
2022/09/17 02:05:13;;;;;;;;;;;6.40;93.70;;;;;;4997819;28;19909;-85
2022/09/17 02:07:49;;;;;;;;;;;6.30;93.90;;;;;;4999023;28;19917;-86
2022/09/17 02:10:20;;;;;;;;;;;6.30;94.00;;;;;;4996050;28;19992;-85
2022/09/17 02:12:50;;;;;;;;;;;6.30;94.10;;;;;;4977716;28;19960;-86
2022/09/17 02:15:19;;;;;;;;;;;6.30;94.30;;;;;;4977386;28;20000;-85
2022/09/17 02:17:48;;;;;;;;;;;6.30;94.40;;;;;;4994178;28;19997;-85
2022/09/17 02:20:15;;;;;;;;;;;6.40;94.40;;;;;;4994362;28;19909;-86
2022/09/17 02:22:49;;;;;;;;;;;6.40;94.50;;;;;;4976545;28;19906;-86
2022/09/17 02:25:27;;;;;;;;;;;6.40;94.50;;;;;;4993903;28;19972;-85
2022/09/17 02:27:56;;;;;;;;;;;6.40;94.50;;;;;;4992200;28;20336;-86
2022/09/17 02:30:22;;;;;;;;;;;6.30;94.50;;;;;;4993951;28;19922;-85
2022/09/17 02:32:47;;;;;;;;;;;6.30;94.50;;;;;;4993596;28;19913;-85
2022/09/17 02:35:14;;;;;;;;;;;6.20;94.70;;;;;;4976326;28;19948;-85
2022/09/17 02:37:40;;;;;;;;;;;6.10;94.90;;;;;;4976079;28;19933;-85
2022/09/17 02:40:06;;;;;;;;;;;6.10;95.10;;;;;;4993673;28;19917;-85
2022/09/17 02:42:54;;;;;;;;;;;6.10;95.30;;;;;;4975980;28;19906;-85
2022/09/17 02:45:19;;;;;;;;;;;6.10;95.40;;;;;;4992747;28;20268;-85
2022/09/17 02:47:51;;;;;;;;;;;6.10;95.40;;;;;;4993694;28;19910;-85
2022/09/17 02:50:28;;;;;;;;;;;6.10;95.50;;;;;;4975955;28;19971;-86
2022/09/17 02:53:06;;;;;;;;;;;6.00;95.60;;;;;;4990408;28;20000;-86
2022/09/17 02:55:38;;;;;;;;;;;6.00;95.70;;;;;;4990376;28;19910;-85
2022/09/17 02:58:11;;;;;;;;;;;5.90;95.60;;;;;;4993294;28;19906;-85
2022/09/17 03:00:37;;;;;;;;;;;5.80;95.70;;;;;;4993501;28;20375;-85
2022/09/17 03:03:32;;;;;;;;;;;5.70;96.10;;;;;;4993096;28;19921;-85
2022/09/17 03:05:59;;;;;;;;;;;5.70;96.30;;;;;;4976085;28;19906;-85
2022/09/17 03:08:39;;;;;;;;;;;5.60;96.40;;;;;;4975673;28;19944;-84
2022/09/17 03:11:05;;;;;;;;;;;5.60;96.60;;;;;;4975643;28;19953;-85
2022/09/17 03:13:31;;;;;;;;;;;5.60;96.70;;;;;;4975667;28;19906;-85
2022/09/17 03:15:56;;;;;;;;;;;5.60;96.80;;;;;;4975934;28;20231;-86
2022/09/17 03:18:22;;;;;;;;;;;5.60;96.90;;;;;;4993112;28;19910;-86
2022/09/17 03:20:48;;;;;;;;;;;5.60;97.00;;;;;;4993001;28;20693;-84
2022/09/17 03:23:14;;;;;;;;;;;5.60;97.00;;;;;;4992838;28;19909;-85
2022/09/17 03:25:39;;;;;;;;;;;5.60;97.10;;;;;;4993050;28;19978;-85
2022/09/17 03:28:05;;;;;;;;;;;5.60;97.50;;;;;;4975757;28;20284;-84
2022/09/17 03:30:30;;;;;;;;;;;5.60;97.30;;;;;;4993013;28;20333;-85
2022/09/17 03:32:56;;;;;;;;;;;5.60;97.40;;;;;;4975575;28;20012;-85
2022/09/17 03:35:21;;;;;;;;;;;5.70;97.50;;;;;;4975532;28;20032;-85
2022/09/17 03:37:47;;;;;;;;;;;5.70;97.60;;;;;;4975585;28;19969;-86
2022/09/17 03:40:13;;;;;;;;;;;5.70;97.60;;;;;;4975807;28;19960;-88
2022/09/17 03:42:38;;;;;;;;;;;5.60;97.60;;;;;;4975508;28;19905;-86
2022/09/17 03:45:04;;;;;;;;;;;5.60;97.70;;;;;;4975838;28;19948;-86
2022/09/17 03:47:30;;;;;;;;;;;5.50;97.80;;;;;;4993267;28;19910;-86
2022/09/17 03:49:55;;;;;;;;;;;5.40;98.10;;;;;;4993606;28;19918;-84
2022/09/17 03:52:21;;;;;;;;;;;5.40;98.30;;;;;;4996602;28;19917;-83
2022/09/17 03:54:47;;;;;;;;;;;5.40;98.50;;;;;;4987686;28;19916;-86
2022/09/17 03:57:12;;;;;;;;;;;5.40;98.60;;;;;;4979267;28;20256;-86
2022/09/17 03:59:38;;;;;;;;;;;5.50;98.70;;;;;;4979284;28;19956;-86
2022/09/17 04:02:04;;;;;;;;;;;5.50;98.70;;;;;;4996524;28;20008;-85
2022/09/17 04:04:30;;;;;;;;;;;5.60;98.70;;;;;;4978979;28;19997;-85
2022/09/17 04:06:55;;;;;;;;;;;5.70;98.70;;;;;;4996506;28;19973;-84
2022/09/17 04:09:21;;;;;;;;;;;5.70;98.70;;;;;;4979067;28;19905;-86
2022/09/17 04:11:46;;;;;;;;;;;5.70;98.70;;;;;;4992361;28;19914;-85
2022/09/17 04:14:12;;;;;;;;;;;5.70;98.80;;;;;;4978673;28;19988;-84
2022/09/17 04:16:38;;;;;;;;;;;5.60;99.30;;;;;;4978955;28;20325;-84
2022/09/17 04:19:03;;;;;;;;;;;5.70;99.10;;;;;;4996148;28;19960;-84
2022/09/17 04:21:29;;;;;;;;;;;5.70;99.20;;;;;;4996464;28;20278;-85
2022/09/17 04:23:54;;;;;;;;;;;5.70;99.30;;;;;;4996020;28;19921;-84
2022/09/17 04:26:20;;;;;;;;;;;5.70;99.40;;;;;;4996093;28;19909;-85
2022/09/17 04:28:45;;;;;;;;;;;5.80;99.50;;;;;;4996009;28;20383;-86
2022/09/17 04:31:11;;;;;;;;;;;5.80;99.60;;;;;;4978601;28;19920;-86
2022/09/17 04:33:36;;;;;;;;;;;5.80;99.60;;;;;;4978557;28;19953;-86
2022/09/17 04:36:02;;;;;;;;;;;5.80;99.80;;;;;;4978775;28;19910;-87
2022/09/17 04:38:28;;;;;;;;;;;5.80;99.80;;;;;;4996319;28;20336;-86
2022/09/17 04:40:56;;;;;;;;;;;5.80;99.90;;;;;;4996281;28;19905;-87
2022/09/17 04:43:21;;;;;;;;;;;5.80;99.90;;;;;;4962013;28;19924;-87
2022/09/17 04:45:48;;;;;;;;;;;5.80;99.90;;;;;;4978845;28;20302;-86
2022/09/17 04:48:13;;;;;;;;;;;5.80;99.90;;;;;;4996158;28;20063;-87
2022/09/17 04:50:39;;;;;;;;;;;5.80;99.90;;;;;;4995804;28;20004;-87
2022/09/17 04:53:05;;;;;;;;;;;5.80;99.90;;;;;;4994483;28;19910;-85
2022/09/17 04:55:30;;;;;;;;;;;5.90;99.90;;;;;;4978295;28;19913;-84
2022/09/17 04:57:56;;;;;;;;;;;5.80;99.90;;;;;;4978125;28;20005;-86
2022/09/17 05:00:22;;;;;;;;;;;5.90;99.90;;;;;;4978072;28;19923;-87
2022/09/17 05:02:48;;;;;;;;;;;5.80;99.90;;;;;;4976622;28;19917;-87
2022/09/17 05:05:14;;;;;;;;;;;5.90;99.90;;;;;;4995607;28;19913;-84
2022/09/17 05:07:40;;;;;;;;;;;5.80;99.90;;;;;;4978870;28;20390;-86
2022/09/17 05:10:06;;;;;;;;;;;5.80;99.90;;;;;;4978317;28;20351;-85
2022/09/17 05:12:32;;;;;;;;;;;5.80;99.90;;;;;;4996514;28;19985;-85
2022/09/17 05:14:57;;;;;;;;;;;5.80;99.90;;;;;;4998643;28;20359;-87
2022/09/17 05:17:23;;;;;;;;;;;5.80;99.90;;;;;;4980855;28;19910;-86
2022/09/17 05:19:48;;;;;;;;;;;5.80;99.90;;;;;;4982837;28;19925;-84
2022/09/17 05:22:14;;;;;;;;;;;5.80;99.90;;;;;;4981752;28;19909;-86
2022/09/17 05:24:39;;;;;;;;;;;5.80;99.90;;;;;;4979213;28;19972;-86
2022/09/17 05:27:05;;;;;;;;;;;5.80;99.90;;;;;;4996368;28;19909;-88
2022/09/17 05:29:31;;;;;;;;;;;5.80;99.90;;;;;;4978616;28;19952;-86
2022/09/17 05:31:57;;;;;;;;;;;5.80;99.90;;;;;;4978616;28;20407;-86
2022/09/17 05:34:22;;;;;;;;;;;5.80;99.90;;;;;;4996092;28;19949;-85
2022/09/17 05:36:48;;;;;;;;;;;5.80;99.90;;;;;;4995804;28;20008;-86
2022/09/17 05:39:13;;;;;;;;;;;5.80;99.90;;;;;;4978330;28;19910;-86
2022/09/17 05:41:39;;;;;;;;;;;5.80;99.90;;;;;;4977833;28;20374;-86
2022/09/17 05:44:05;;;;;;;;;;;5.80;99.90;;;;;;4978275;28;20322;-86
2022/09/17 05:46:30;;;;;;;;;;;5.80;99.90;;;;;;4977838;28;19905;-87
2022/09/17 05:48:56;;;;;;;;;;;5.80;99.90;;;;;;4995134;28;20370;-86
2022/09/17 05:51:22;;;;;;;;;;;5.80;99.90;;;;;;4977821;28;20382;-86
2022/09/17 05:53:48;;;;;;;;;;;5.80;99.90;;;;;;4994748;28;20422;-87
2022/09/17 05:56:14;;;;;;;;;;;5.80;99.90;;;;;;4977493;28;19985;-86
2022/09/17 05:58:40;;;;;;;;;;;5.90;99.90;;;;;;4977513;28;19997;-86
2022/09/17 06:01:06;;;;;;;;;;;5.90;99.90;;;;;;4977118;28;19956;-86
2022/09/17 06:03:31;;;;;;;;;;;5.90;99.90;;;;;;4977130;28;20412;-86
2022/09/17 06:05:58;;;;;;;;;;;5.90;99.90;;;;;;4977394;28;20278;-86
2022/09/17 06:08:24;;;;;;;;;;;5.80;99.90;;;;;;4977108;28;19909;-86
2022/09/17 06:10:50;;;;;;;;;;;5.80;99.90;;;;;;4976969;28;19921;-86
2022/09/17 06:13:16;;;;;;;;;;;5.80;99.90;;;;;;4976676;28;20283;-86
2022/09/17 06:15:41;;;;;;;;;;;5.80;99.90;;;;;;4994416;28;20036;-86
2022/09/17 06:18:07;;;;;;;;;;;5.80;99.90;;;;;;4994412;28;19968;-86
2022/09/17 06:20:33;;;;;;;;;;;5.80;99.90;;;;;;4994215;28;19919;-87
2022/09/17 06:22:58;;;;;;;;;;;5.80;99.90;;;;;;4994236;28;19912;-86
2022/09/17 06:25:25;;;;;;;;;;;5.80;99.90;;;;;;4975686;28;20011;-87
2022/09/17 06:27:50;;;;;;;;;;;5.80;99.90;;;;;;4976355;28;19910;-86
2022/09/17 06:30:16;;;;;;;;;;;5.80;99.90;;;;;;4993360;28;19916;-85
2022/09/17 06:32:41;;;;;;;;;;;5.80;99.90;;;;;;4993095;28;20008;-86
2022/09/17 06:35:07;;;;;;;;;;;5.80;99.90;;;;;;4991999;28;20289;-86
2022/09/17 06:37:39;;;;;;;;;;;5.80;99.90;;;;;;4976089;28;20271;-87
2022/09/17 06:40:04;;;;;;;;;;;5.80;99.90;;;;;;4976710;28;19921;-84
2022/09/17 06:42:30;;;;;;;;;;;5.90;99.90;;;;;;4976347;28;19972;-87
2022/09/17 06:44:57;;;;;;;;;;;5.90;99.90;;;;;;4975656;28;19929;-87
2022/09/17 06:47:26;;;;;;;;;;;5.90;99.90;;;;;;4976583;28;20279;-89
2022/09/17 06:49:53;;;;;;;;;;;5.90;99.90;;;;;;4992558;28;19934;-88
2022/09/17 06:52:18;;;;;;;;;;;5.90;99.90;;;;;;4974905;28;20371;-88
2022/09/17 06:54:44;;;;;;;;;;;5.90;99.90;;;;;;4974895;28;20032;-87
2022/09/17 06:57:10;;;;;;;;;;;5.90;99.90;;;;;;4974937;28;20351;-87
2022/09/17 06:59:35;;;;;;;;;;;5.90;99.90;;;;;;4974659;28;20385;-87
2022/09/17 07:02:01;;;;;;;;;;;6.00;99.90;;;;;;4975037;28;20004;-88
2022/09/17 07:04:26;;;;;;;;;;;6.00;99.90;;;;;;4974975;28;19910;-85
2022/09/17 07:06:52;;;;;;;;;;;6.00;99.90;;;;;;4975021;28;19910;-86
2022/09/17 07:09:18;;;;;;;;;;;6.00;99.90;;;;;;4974622;28;19947;-89
2022/09/17 07:11:43;;;;;;;;;;;6.10;99.90;;;;;;4974524;28;19918;-85
2022/09/17 07:14:09;;;;;;;;;;;6.10;99.90;;;;;;4974595;28;19956;-85
2022/09/17 07:16:35;;;;;;;;;;;6.20;99.90;;;;;;4974652;28;19906;-87
2022/09/17 07:19:02;;;;;;;;;;;6.20;99.90;;;;;;4975738;28;20396;-87
2022/09/17 07:21:27;;;;;;;;;;;6.30;99.90;;;;;;4972166;28;19905;-85
2022/09/17 07:23:53;;;;;;;;;;;6.30;99.90;;;;;;4992110;28;19981;-88
2022/09/17 07:26:18;;;;;;;;;;;6.40;99.90;;;;;;4992179;28;19985;-87
2022/09/17 07:28:44;;;;;;;;;;;6.40;99.90;;;;;;4977817;28;19906;-87
2022/09/17 07:31:10;;;;;;;;;;;6.50;99.90;;;;;;4976828;28;19914;-85
2022/09/17 07:33:36;;;;;;;;;;;6.50;99.90;;;;;;4977866;28;19952;-85
2022/09/17 07:36:03;;;;;;;;;;;6.60;99.90;;;;;;4995001;28;19914;-87
2022/09/17 07:38:30;;;;;;;;;;;6.60;99.90;;;;;;4990910;28;20749;-87
2022/09/17 07:40:56;;;;;;;;;;;6.70;99.90;;;;;;4977274;28;19919;-86
2022/09/17 07:43:21;;;;;;;;;;;6.80;99.90;;;;;;4977036;28;20016;-84
2022/09/17 07:45:47;;;;;;;;;;;6.90;99.90;;;;;;4995305;28;19948;-86
2022/09/17 07:48:13;;;;;;;;;;;6.90;99.90;;;;;;4995587;28;20000;-87
2022/09/17 07:50:39;;;;;;;;;;;7.00;99.90;;;;;;4995507;28;19913;-87
2022/09/17 07:53:05;;;;;;;;;;;7.20;99.90;;;;;;4995183;28;19956;-84
2022/09/17 07:55:31;;;;;;;;;;;7.30;99.90;;;;;;4977670;28;20279;-85
2022/09/17 07:57:57;;;;;;;;;;;7.40;99.90;;;;;;4977333;28;20428;-86
2022/09/17 08:00:22;;;;;;;;;;;7.50;99.90;;;;;;4993698;28;19909;-87
2022/09/17 08:02:54;;;;;;;;;;;7.60;99.90;;;;;;4993618;28;20015;-87
2022/09/17 08:05:20;;;;;;;;;;;7.70;99.90;;;;;;4975168;28;20325;-86
2022/09/17 08:07:53;;;;;;;;;;;7.80;99.90;;;;;;4978212;28;20000;-87
2022/09/17 08:10:21;;;;;;;;;;;7.90;99.90;;;;;;4994380;28;19918;-87
2022/09/17 08:12:54;;;;;;;;;;;8.10;99.90;;;;;;4995086;28;20366;-87
2022/09/17 08:15:19;;;;;;;;;;;8.30;99.90;;;;;;4977824;28;19994;-86
2022/09/17 08:17:45;;;;;;;;;;;8.50;99.90;;;;;;4995741;28;20331;-86
2022/09/17 08:20:11;;;;;;;;;;;8.60;99.90;;;;;;4978154;28;20267;-86
2022/09/17 08:22:36;;;;;;;;;;;8.80;99.90;;;;;;4995062;28;19913;-85
2022/09/17 08:25:06;;;;;;;;;;;9.00;99.90;;;;;;4935251;28;1304919;-86
2022/09/17 08:27:31;;;;;;;;;;;9.20;99.80;;;;;;4983954;28;19910;-85
2022/09/17 08:29:57;;;;;;;;;;;9.30;99.10;;;;;;4984026;28;19918;-88
2022/09/17 08:32:22;;;;;;;;;;;9.40;98.60;;;;;;4982626;28;19963;-86
2022/09/17 08:34:48;;;;;;;;;;;9.60;98.00;;;;;;4999889;28;19906;-87
2022/09/17 08:37:13;;;;;;;;;;;9.70;97.60;;;;;;4996102;28;19910;-86
2022/09/17 08:39:39;;;;;;;;;;;9.80;96.70;;;;;;4978466;28;20008;-87
2022/09/17 08:42:05;;;;;;;;;;;9.90;95.70;;;;;;4981473;28;19961;-86
2022/09/17 08:44:38;;;;;;;;;;;10.00;94.70;;;;;;4978685;28;19948;-86
2022/09/17 08:47:11;;;;;;;;;;;10.10;94.00;;;;;;4977969;28;19916;-85
2022/09/17 08:49:51;;;;;;;;;;;10.20;93.40;;;;;;4995273;28;19916;-85
2022/09/17 08:52:35;;;;;;;;;;;10.30;93.00;;;;;;4992413;28;19906;-85
2022/09/17 08:55:20;;;;;;;;;;;10.40;92.50;;;;;;4994407;28;19905;-86
2022/09/17 08:58:15;;;;;;;;;;;10.50;92.10;;;;;;4991112;28;19952;-85
2022/09/17 09:00:44;;;;;;;;;;;10.60;91.70;;;;;;4993035;28;20385;-86
2022/09/17 09:03:28;;;;;;;;;;;10.70;91.20;;;;;;4994538;28;20319;-86
2022/09/17 09:05:57;;;;;;;;;;;10.80;90.90;;;;;;4993334;28;19910;-87
2022/09/17 09:08:29;;;;;;;;;;;10.90;90.50;;;;;;4977044;28;20000;-86
2022/09/17 09:10:58;;;;;;;;;;;11.00;90.20;;;;;;4977198;28;20355;-85
2022/09/17 09:13:27;;;;;;;;;;;11.10;89.70;;;;;;4977230;28;19910;-87
2022/09/17 09:16:01;;;;;;;;;;;11.20;89.00;;;;;;4977261;28;19906;-85
2022/09/17 09:18:31;;;;;;;;;;;11.20;88.40;;;;;;4974672;28;19989;-86
2022/09/17 09:21:15;;;;;;;;;;;11.30;88.00;;;;;;4977298;28;19910;-86
2022/09/17 09:23:41;;;;;;;;;;;11.50;87.70;;;;;;4994448;28;19910;-86
2022/09/17 09:26:15;;;;;;;;;;;11.70;87.00;;;;;;4977570;28;19916;-87
2022/09/17 09:28:43;;;;;;;;;;;11.80;86.20;;;;;;4978096;28;20303;-86
2022/09/17 09:31:26;;;;;;;;;;;12.00;85.30;;;;;;4978009;28;20366;-89
2022/09/17 09:33:52;;;;;;;;;;;12.10;84.70;;;;;;4976098;28;19968;-85
2022/09/17 09:36:20;;;;;;;;;;;12.20;83.90;;;;;;4977513;28;19906;-85
2022/09/17 09:38:53;;;;;;;;;;;12.40;83.20;;;;;;4976787;28;19909;-86
2022/09/17 09:41:23;;;;;;;;;;;12.50;82.50;;;;;;4994555;28;19944;-86
2022/09/17 09:43:56;;;;;;;;;;;12.70;82.10;;;;;;4994107;28;19917;-85
2022/09/17 09:46:42;;;;;;;;;;;12.80;81.10;;;;;;4994524;28;20209;-86
2022/09/17 09:49:27;;;;;;;;;;;13.00;80.60;;;;;;4975951;28;20298;-86
2022/09/17 09:51:52;;;;;;;;;;;13.20;80.20;;;;;;4991034;28;20348;-86
2022/09/17 09:54:27;;;;;;;;;;;13.40;79.00;;;;;;4976667;28;19949;-86
2022/09/17 09:56:57;;;;;;;;;;;13.50;78.30;;;;;;4977360;28;19914;-86
2022/09/17 09:59:23;;;;;;;;;;;13.70;77.90;;;;;;4995141;28;20086;-86
2022/09/17 10:01:49;;;;;;;;;;;13.80;77.20;;;;;;4994840;28;19956;-86
2022/09/17 10:04:22;;;;;;;;;;;14.00;76.80;;;;;;4976563;28;19909;-86
2022/09/17 10:06:49;;;;;;;;;;;14.10;76.10;;;;;;4976720;28;20327;-86
2022/09/17 10:09:16;;;;;;;;;;;14.30;75.80;;;;;;4977221;28;19913;-87
2022/09/17 10:11:57;;;;;;;;;;;14.50;74.70;;;;;;4979136;28;19952;-88
2022/09/17 10:14:24;;;;;;;;;;;14.70;73.80;;;;;;4994185;28;20355;-87
2022/09/17 10:17:09;;;;;;;;;;;14.80;73.30;;;;;;4977206;28;19918;-88
2022/09/17 10:19:34;;;;;;;;;;;14.90;72.90;;;;;;4993776;28;19905;-86
2022/09/17 10:22:17;;;;;;;;;;;15.10;72.20;;;;;;4973670;28;19914;-85
2022/09/17 10:24:42;;;;;;;;;;;15.20;71.80;;;;;;4975524;28;20545;-86
2022/09/17 10:27:12;;;;;;;;;;;15.40;71.10;;;;;;4975483;28;19925;-85
2022/09/17 10:29:43;;;;;;;;;;;15.50;70.40;;;;;;4992708;28;19916;-86
2022/09/17 10:32:14;;;;;;;;;;;15.70;69.80;;;;;;4993170;28;19920;-86
2022/09/17 10:34:40;;;;;;;;;;;15.80;68.70;;;;;;4975605;28;19910;-87
2022/09/17 10:37:25;;;;;;;;;;;15.90;68.30;;;;;;4976645;28;19977;-88
2022/09/17 10:39:52;;;;;;;;;;;16.10;68.00;;;;;;4976088;28;19937;-87
2022/09/17 10:42:18;;;;;;;;;;;16.40;67.60;;;;;;4976564;28;19909;-87
2022/09/17 10:44:57;;;;;;;;;;;16.60;67.00;;;;;;4993884;28;19996;-87
2022/09/17 10:47:29;;;;;;;;;;;16.80;66.50;;;;;;4975802;28;19906;-86
2022/09/17 10:49:58;;;;;;;;;;;17.00;65.90;;;;;;4992476;28;20274;-88
2022/09/17 10:52:24;;;;;;;;;;;17.10;64.90;;;;;;4976526;28;19917;-88
2022/09/17 10:55:08;;;;;;;;;;;17.20;64.50;;;;;;4976567;28;19952;-87
2022/09/17 10:57:46;;;;;;;;;;;17.30;63.90;;;;;;4992467;28;20402;-88
2022/09/17 11:00:19;;;;;;;;;;;17.40;63.20;;;;;;4989723;28;19910;-88
2022/09/17 11:03:03;;;;;;;;;;;17.50;62.90;;;;;;4974938;28;19909;-87
2022/09/17 11:05:48;;;;;;;;;;;17.60;62.60;;;;;;4991551;28;19952;-87
2022/09/17 11:08:22;;;;;;;;;;;17.80;62.00;;;;;;4994321;28;19921;-89
2022/09/17 11:11:09;;;;;;;;;;;18.00;61.70;;;;;;4976434;28;19925;-88
2022/09/17 11:13:53;;;;;;;;;;;18.10;61.00;;;;;;4990826;28;19905;-88
2022/09/17 11:16:40;;;;;;;;;;;18.10;60.50;;;;;;4989036;28;19910;-88
2022/09/17 11:19:11;;;;;;;;;;;18.20;60.30;;;;;;4992564;28;19938;-87
2022/09/17 11:22:00;;;;;;;;;;;18.30;59.90;;;;;;4990547;28;19910;-88
2022/09/17 11:24:43;;;;;;;;;;;18.40;59.30;;;;;;4993579;28;19924;-89
2022/09/17 11:27:12;;;;;;;;;;;18.40;59.40;;;;;;4977128;28;19912;-89
2022/09/17 11:29:56;;;;;;;;;;;18.50;59.40;;;;;;4975882;28;19909;-89
2022/09/17 11:32:40;;;;;;;;;;;18.70;59.10;;;;;;4995377;28;19914;-88
2022/09/17 11:35:17;;;;;;;;;;;18.90;58.80;;;;;;4982369;28;19905;-88
2022/09/17 11:38:01;;;;;;;;;;;19.10;58.50;;;;;;4998030;28;19913;-88
2022/09/17 11:40:34;;;;;;;;;;;19.30;57.70;;;;;;4980862;28;19928;-87
2022/09/17 11:43:06;;;;;;;;;;;19.30;57.20;;;;;;4995657;28;19926;-89
2022/09/17 11:45:40;;;;;;;;;;;19.40;57.20;;;;;;4976557;28;19906;-86
2022/09/17 11:48:10;;;;;;;;;;;19.40;56.70;;;;;;4975906;28;20375;-88
2022/09/17 11:50:49;;;;;;;;;;;19.50;56.70;;;;;;4975565;28;19963;-87
2022/09/17 11:53:24;;;;;;;;;;;19.70;56.70;;;;;;4992949;28;19909;-87
2022/09/17 11:55:54;;;;;;;;;;;19.80;56.30;;;;;;4975439;28;20283;-87
2022/09/17 11:58:25;;;;;;;;;;;20.00;56.20;;;;;;4976080;28;20386;-87
2022/09/17 12:00:53;;;;;;;;;;;20.10;56.10;;;;;;4976473;28;19928;-87
2022/09/17 12:03:31;;;;;;;;;;;20.20;55.80;;;;;;4976478;28;19906;-87
2022/09/17 12:06:00;;;;;;;;;;;20.30;55.30;;;;;;4994082;28;19909;-88
2022/09/17 12:08:44;;;;;;;;;;;20.30;55.00;;;;;;4993987;28;19910;-87
2022/09/17 12:11:13;;;;;;;;;;;20.50;54.70;;;;;;4977300;28;19914;-87
2022/09/17 12:13:44;;;;;;;;;;;20.70;54.40;;;;;;4980144;28;19909;-87
2022/09/17 12:16:17;;;;;;;;;;;20.80;54.40;;;;;;4980314;28;19906;-87
2022/09/17 12:19:04;;;;;;;;;;;20.90;54.10;;;;;;4997196;28;19906;-88
2022/09/17 12:21:35;;;;;;;;;;;20.90;54.10;;;;;;4997067;28;19917;-88
2022/09/17 12:24:10;;;;;;;;;;;21.00;53.70;;;;;;4996851;28;19913;-85
2022/09/17 12:26:54;;;;;;;;;;;21.00;53.60;;;;;;4998311;28;19949;-86
2022/09/17 12:29:19;;;;;;;;;;;21.10;53.50;;;;;;4982038;28;19917;-85
2022/09/17 12:32:02;;;;;;;;;;;21.10;53.50;;;;;;4997796;28;19996;-88
2022/09/17 12:34:40;;;;;;;;;;;21.10;53.60;;;;;;4997518;28;19913;-88
2022/09/17 12:37:09;;;;;;;;;;;21.20;53.10;;;;;;4997176;28;19909;-86
2022/09/17 12:39:35;;;;;;;;;;;21.10;53.30;;;;;;4996710;28;19906;-86
2022/09/17 12:42:21;;;;;;;;;;;21.10;53.40;;;;;;4997652;28;20291;-87
2022/09/17 12:44:50;;;;;;;;;;;21.10;53.40;;;;;;4966758;28;19913;-87
2022/09/17 12:47:15;;;;;;;;;;;21.20;53.40;;;;;;4996973;28;19910;-87
2022/09/17 12:50:03;;;;;;;;;;;21.20;53.20;;;;;;4996392;28;20381;-86
2022/09/17 12:52:36;;;;;;;;;;;21.30;53.00;;;;;;4996873;28;19912;-86
2022/09/17 12:55:22;;;;;;;;;;;21.50;53.10;;;;;;4996625;28;20430;-87
2022/09/17 12:57:47;;;;;;;;;;;21.60;52.70;;;;;;4979378;28;19910;-87
2022/09/17 13:00:14;;;;;;;;;;;21.60;52.10;;;;;;4978910;28;20115;-87
2022/09/17 13:02:40;;;;;;;;;;;21.60;52.20;;;;;;4978989;28;19996;-87
2022/09/17 13:05:24;;;;;;;;;;;21.70;52.40;;;;;;4996251;28;19949;-87
2022/09/17 13:07:52;;;;;;;;;;;21.80;52.40;;;;;;4978342;28;20313;-87
2022/09/17 13:10:37;;;;;;;;;;;21.80;52.40;;;;;;4978220;28;19914;-87
2022/09/17 13:13:11;;;;;;;;;;;21.90;52.30;;;;;;4995756;28;19916;-87
2022/09/17 13:15:51;;;;;;;;;;;21.90;52.00;;;;;;4995666;28;19959;-88
2022/09/17 13:18:38;;;;;;;;;;;22.00;51.70;;;;;;4995997;28;19909;-86
2022/09/17 13:21:08;;;;;;;;;;;22.10;51.50;;;;;;4978353;28;19909;-86
2022/09/17 13:23:36;;;;;;;;;;;22.20;51.40;;;;;;4994891;28;20367;-87
2022/09/17 13:26:04;;;;;;;;;;;22.20;51.40;;;;;;4996166;28;19910;-86
2022/09/17 13:28:37;;;;;;;;;;;22.10;51.10;;;;;;4978321;28;19956;-86
2022/09/17 13:31:04;;;;;;;;;;;22.00;51.00;;;;;;4962168;28;20013;-86
2022/09/17 13:33:49;;;;;;;;;;;21.90;51.00;;;;;;4995748;28;20367;-85
2022/09/17 13:36:30;;;;;;;;;;;21.80;50.90;;;;;;4996944;28;19988;-87
2022/09/17 13:38:55;;;;;;;;;;;21.90;51.10;;;;;;4978157;28;19910;-87
2022/09/17 13:41:23;;;;;;;;;;;21.90;51.00;;;;;;4977710;28;19906;-86
2022/09/17 13:43:53;;;;;;;;;;;21.70;50.90;;;;;;4978128;28;19914;-86
2022/09/17 13:46:22;;;;;;;;;;;21.20;51.00;;;;;;4977203;28;19929;-87
2022/09/17 13:48:53;;;;;;;;;;;20.90;51.70;;;;;;4998440;28;20257;-87
2022/09/17 13:51:28;;;;;;;;;;;20.60;52.40;;;;;;5000547;28;20379;-87
2022/09/17 13:53:55;;;;;;;;;;;20.50;53.00;;;;;;4980433;28;19909;-87
2022/09/17 13:56:47;;;;;;;;;;;20.50;53.20;;;;;;4995462;28;19912;-87
2022/09/17 13:59:15;;;;;;;;;;;20.50;53.00;;;;;;4973926;28;19910;-87
2022/09/17 14:02:00;;;;;;;;;;;20.50;53.00;;;;;;4977697;28;20370;-86
2022/09/17 14:04:41;;;;;;;;;;;20.60;53.20;;;;;;4995318;28;19928;-87
2022/09/17 14:07:29;;;;;;;;;;;21.00;53.60;;;;;;4994805;28;20269;-87
2022/09/17 14:09:56;;;;;;;;;;;21.20;53.10;;;;;;4966964;28;19955;-87
2022/09/17 14:12:43;;;;;;;;;;;21.20;52.80;;;;;;4994744;28;19910;-86
2022/09/17 14:15:27;;;;;;;;;;;21.30;53.10;;;;;;4955047;28;19928;-87
2022/09/17 14:17:53;;;;;;;;;;;21.60;53.20;;;;;;4976841;28;19959;-87
2022/09/17 14:20:20;;;;;;;;;;;21.80;52.70;;;;;;4976971;28;19906;-86
2022/09/17 14:22:53;;;;;;;;;;;22.00;52.40;;;;;;4977260;28;19906;-86
2022/09/17 14:25:21;;;;;;;;;;;22.10;52.20;;;;;;4977294;28;19918;-86
2022/09/17 14:27:57;;;;;;;;;;;22.40;52.00;;;;;;4976844;28;19909;-86
2022/09/17 14:30:25;;;;;;;;;;;22.50;51.90;;;;;;4976950;28;19910;-86
2022/09/17 14:33:00;;;;;;;;;;;22.50;51.40;;;;;;4977334;28;19910;-85
2022/09/17 14:35:32;;;;;;;;;;;22.60;51.40;;;;;;4994398;28;19917;-86
2022/09/17 14:37:59;;;;;;;;;;;22.70;51.40;;;;;;4994305;28;19906;-86
2022/09/17 14:40:25;;;;;;;;;;;22.80;51.30;;;;;;4977156;28;20475;-86
2022/09/17 14:42:53;;;;;;;;;;;22.80;50.90;;;;;;4976603;28;20387;-86